Time;durP1;ratioP1;P1;durP2;ratioP2;P2;SDS_P1;SDS_P2;PMS_P1;PMS_P2;Temp;Humidity;BMP_temperature;BMP_pressure;BME280_temperature;BME280_humidity;BME280_pressure;Samples;Min_cycle;Max_cycle;Signal;HPM_P1;HPM_P2
2021/12/24 00:02:18;;;;;;;37.22;20.67;;;;;;;;;;5032582;28;20048;-66
2021/12/24 00:04:43;;;;;;;44.25;24.73;;;;;;;;;;5032958;28;20127;-66
2021/12/24 00:07:08;;;;;;;39.97;24.90;;;;;;;;;;5033540;28;20417;-66
2021/12/24 00:09:34;;;;;;;40.45;21.92;;;;;;;;;;5025147;28;20437;-67
2021/12/24 00:12:02;;;;;;;47.47;23.30;;;;;;;;;;5028908;28;20473;-67
2021/12/24 00:14:30;;;;;;;59.13;26.88;;;;;;;;;;5032988;28;20044;-66
2021/12/24 00:16:59;;;;;;;42.15;24.52;;;;;;;;;;5033590;28;20033;-66
2021/12/24 00:19:42;;;;;;;48.28;22.83;;;;;;;;;;5032111;28;20509;-66
2021/12/24 00:22:39;;;;;;;47.95;25.08;;;;;;;;;;5021865;28;20033;-67
2021/12/24 00:35:53;;;;;;;52.90;24.35;;;;;;;;;;5019035;28;20071;-67
2021/12/24 00:38:18;;;;;;;54.83;25.80;;;;;;;;;;5032852;28;20029;-66
2021/12/24 00:40:45;;;;;;;48.95;25.35;;;;;;;;;;5006774;28;20041;-66
2021/12/24 00:43:11;;;;;;;40.08;20.88;;;;;;;;;;5031077;28;20032;-66
2021/12/24 00:45:37;;;;;;;46.90;23.77;;;;;;;;;;5039085;28;20029;-66
2021/12/24 00:48:04;;;;;;;43.35;23.13;;;;;;;;;;5040146;28;20166;-67
2021/12/24 00:50:30;;;;;;;39.85;22.58;;;;;;;;;;5031905;28;20021;-67
2021/12/24 00:53:02;;;;;;;44.72;21.58;;;;;;;;;;5031051;28;20018;-67
2021/12/24 00:55:28;;;;;;;43.72;22.55;;;;;;;;;;5032303;28;20013;-67
2021/12/24 00:57:55;;;;;;;35.83;19.10;;;;;;;;;;5031221;28;20056;-67
2021/12/24 01:00:25;;;;;;;32.78;17.90;;;;;;;;;;5028023;28;20022;-67
2021/12/24 01:02:51;;;;;;;60.45;24.77;;;;;;;;;;5012581;28;20545;-67
2021/12/24 01:05:18;;;;;;;25.98;16.23;;;;;;;;;;5016034;28;20025;-66
2021/12/24 01:07:45;;;;;;;40.88;18.50;;;;;;;;;;5031814;28;20105;-67
2021/12/24 01:10:11;;;;;;;42.95;19.70;;;;;;;;;;5028894;28;20017;-67
2021/12/24 01:12:36;;;;;;;36.00;19.05;;;;;;;;;;5031382;28;20548;-66
2021/12/24 01:15:03;;;;;;;29.08;17.15;;;;;;;;;;5021285;28;20022;-66
2021/12/24 01:17:35;;;;;;;25.35;14.80;;;;;;;;;;5033446;28;20021;-66
2021/12/24 01:20:09;;;;;;;25.42;14.80;;;;;;;;;;5045893;28;20025;-66
2021/12/24 01:25:30;;;;;;;21.70;13.60;;;;;;;;;;5031876;28;20021;-66
2021/12/24 01:38:25;;;;;;;25.52;15.30;;;;;;;;;;5032268;28;20133;-65
2021/12/24 01:41:06;;;;;;;23.15;14.18;;;;;;;;;;5027501;28;20077;-66
2021/12/24 01:43:32;;;;;;;32.00;16.80;;;;;;;;;;5016574;28;20087;-67
2021/12/24 01:45:58;;;;;;;41.15;21.90;;;;;;;;;;5026221;28;20033;-65
2021/12/24 01:48:23;;;;;;;41.88;22.67;;;;;;;;;;5031630;28;20104;-66
2021/12/24 01:50:49;;;;;;;31.95;17.52;;;;;;;;;;5038702;28;20109;-67
2021/12/24 01:53:16;;;;;;;26.30;16.80;;;;;;;;;;5036384;28;20032;-66
2021/12/24 01:55:41;;;;;;;24.70;14.05;;;;;;;;;;5044270;28;20548;-66
2021/12/24 01:58:06;;;;;;;24.75;14.65;;;;;;;;;;5021807;28;20117;-66
2021/12/24 02:00:36;;;;;;;36.40;20.52;;;;;;;;;;5024938;28;20018;-67
2021/12/24 02:03:02;;;;;;;21.45;13.15;;;;;;;;;;5013234;28;20029;-66
2021/12/24 02:05:27;;;;;;;29.90;17.30;;;;;;;;;;5029642;28;20349;-66
2021/12/24 02:07:52;;;;;;;24.90;15.38;;;;;;;;;;5013402;28;20022;-67
2021/12/24 02:10:18;;;;;;;26.67;16.30;;;;;;;;;;5027372;28;20095;-67
2021/12/24 02:12:44;;;;;;;21.20;15.65;;;;;;;;;;5030507;28;20405;-67
2021/12/24 02:15:22;;;;;;;24.38;17.20;;;;;;;;;;5031450;28;20530;-67
2021/12/24 02:28:44;;;;;;;17.02;11.07;;;;;;;;;;5034384;28;20519;-67
2021/12/24 02:31:11;;;;;;;22.90;13.07;;;;;;;;;;5042033;28;20486;-66
2021/12/24 02:33:37;;;;;;;23.00;13.77;;;;;;;;;;5034753;28;20470;-67
2021/12/24 02:36:03;;;;;;;16.27;11.10;;;;;;;;;;5035167;28;20061;-67
2021/12/24 02:38:28;;;;;;;10.65;7.97;;;;;;;;;;5031412;28;20104;-67
2021/12/24 02:40:53;;;;;;;13.75;8.75;;;;;;;;;;5025288;28;20516;-66
2021/12/24 02:43:21;;;;;;;13.30;9.40;;;;;;;;;;5034349;28;20399;-67
2021/12/24 02:45:48;;;;;;;11.80;7.85;;;;;;;;;;5034838;28;20017;-67
2021/12/24 02:56:16;;;;;;;7.18;5.30;;;;;;;;;;5034860;28;20129;-67
2021/12/24 02:58:42;;;;;;;6.90;5.63;;;;;;;;;;5036781;28;20525;-67
2021/12/24 03:01:09;;;;;;;10.10;7.32;;;;;;;;;;5016277;28;20033;-67
2021/12/24 03:03:34;;;;;;;7.35;6.03;;;;;;;;;;5034087;28;20074;-67
2021/12/24 03:05:59;;;;;;;9.95;5.88;;;;;;;;;;5039719;28;20408;-67
2021/12/24 03:08:24;;;;;;;9.80;6.32;;;;;;;;;;5033518;28;20461;-67
2021/12/24 03:10:50;;;;;;;9.70;6.38;;;;;;;;;;5033190;28;20021;-67
2021/12/24 03:13:16;;;;;;;7.07;5.45;;;;;;;;;;5040323;28;20044;-64
2021/12/24 03:15:41;;;;;;;6.57;5.50;;;;;;;;;;5036532;28;20394;-67
2021/12/24 03:18:06;;;;;;;8.02;6.60;;;;;;;;;;5043501;28;20473;-66
2021/12/24 03:20:34;;;;;;;6.35;4.50;;;;;;;;;;5012424;28;20021;-66
2021/12/24 03:25:31;;;;;;;5.35;4.63;;;;;;;;;;5034447;28;20037;-67
2021/12/24 03:27:57;;;;;;;5.90;4.40;;;;;;;;;;5034775;28;20017;-66
2021/12/24 03:30:22;;;;;;;5.47;4.57;;;;;;;;;;5025617;28;20502;-66
2021/12/24 03:32:48;;;;;;;5.75;4.88;;;;;;;;;;5009169;28;20125;-66
2021/12/24 03:35:13;;;;;;;5.75;4.50;;;;;;;;;;5033850;28;20025;-66
2021/12/24 03:37:38;;;;;;;4.07;3.67;;;;;;;;;;5033717;28;20017;-66
2021/12/24 03:40:03;;;;;;;6.07;4.93;;;;;;;;;;5011183;28;20050;-66
2021/12/24 03:42:29;;;;;;;4.85;4.35;;;;;;;;;;5032541;28;20238;-65
2021/12/24 03:45:05;;;;;;;5.65;5.05;;;;;;;;;;5016366;28;20040;-66
2021/12/24 03:47:36;;;;;;;4.88;4.25;;;;;;;;;;5040239;28;20043;-66
2021/12/24 03:50:08;;;;;;;8.25;6.40;;;;;;;;;;5039756;28;20033;-65
2021/12/24 03:55:05;;;;;;;4.65;3.78;;;;;;;;;;5045765;28;20074;-66
2021/12/24 03:57:38;;;;;;;6.85;5.50;;;;;;;;;;5038412;28;20509;-66
2021/12/24 04:00:14;;;;;;;7.13;5.85;;;;;;;;;;5013954;28;20395;-66
2021/12/24 04:02:40;;;;;;;5.93;5.32;;;;;;;;;;5029732;28;20021;-66
2021/12/24 04:05:06;;;;;;;7.95;5.85;;;;;;;;;;5033000;28;20037;-66
2021/12/24 04:07:31;;;;;;;7.90;5.90;;;;;;;;;;5034036;28;20036;-66
2021/12/24 04:10:06;;;;;;;8.00;6.15;;;;;;;;;;5031996;28;20029;-65
2021/12/24 04:12:31;;;;;;;9.90;6.55;;;;;;;;;;5008158;28;20029;-66
2021/12/24 04:14:56;;;;;;;6.55;5.70;;;;;;;;;;5049389;28;20029;-65
2021/12/24 04:17:22;;;;;;;5.78;5.07;;;;;;;;;;5048642;28;20029;-66
2021/12/24 04:25:15;;;;;;;9.63;7.07;;;;;;;;;;5036296;28;20090;-66
2021/12/24 04:27:40;;;;;;;8.38;7.05;;;;;;;;;;5050695;28;20115;-66
2021/12/24 04:30:17;;;;;;;8.05;6.50;;;;;;;;;;5032966;28;20024;-66
2021/12/24 04:35:20;;;;;;;9.77;7.57;;;;;;;;;;5022569;28;20030;-66
2021/12/24 04:51:27;;;;;;;15.18;9.45;;;;;;;;;;5033487;28;20099;-65
2021/12/24 05:04:48;;;;;;;13.10;10.68;;;;;;;;;;5024368;28;20049;-66
2021/12/24 05:08:09;;;;;;;14.25;10.98;;;;;;;;;;5031768;28;20037;-66
2021/12/24 05:09:59;;;;;;;16.42;11.90;;;;;;;;;;5016944;28;20030;-66
2021/12/24 05:12:24;;;;;;;16.42;12.23;;;;;;;;;;5014003;28;20029;-66
2021/12/24 05:14:49;;;;;;;16.17;11.43;;;;;;;;;;5031315;28;20355;-65
2021/12/24 05:17:28;;;;;;;16.73;11.82;;;;;;;;;;5032036;28;20025;-66
2021/12/24 05:22:57;;;;;;;19.80;13.80;;;;;;;;;;4921771;29;20050;-65
2021/12/24 05:25:23;;;;;;;18.67;13.55;;;;;;;;;;4938209;29;20381;-65
2021/12/24 05:27:51;;;;;;;15.30;11.07;;;;;;;;;;4934320;29;20492;-65
2021/12/24 05:30:16;;;;;;;16.52;12.35;;;;;;;;;;4932171;29;20055;-65
2021/12/24 05:32:42;;;;;;;18.05;13.43;;;;;;;;;;4932149;29;20024;-66
2021/12/24 05:35:07;;;;;;;13.95;11.23;;;;;;;;;;4933292;29;20048;-65
2021/12/24 05:37:32;;;;;;;17.75;13.05;;;;;;;;;;4937525;29;20031;-66
2021/12/24 05:39:57;;;;;;;15.30;11.70;;;;;;;;;;4932900;29;20423;-66
2021/12/24 05:42:25;;;;;;;15.90;11.32;;;;;;;;;;4942363;29;20484;-66
2021/12/24 05:44:50;;;;;;;17.35;12.43;;;;;;;;;;4933541;29;20110;-66
2021/12/24 05:47:15;;;;;;;16.45;12.90;;;;;;;;;;4932479;29;20154;-66
2021/12/24 05:49:42;;;;;;;14.63;11.43;;;;;;;;;;4931601;29;20107;-65
2021/12/24 05:52:07;;;;;;;19.50;12.93;;;;;;;;;;4933867;29;20045;-66
2021/12/24 05:54:32;;;;;;;15.13;11.77;;;;;;;;;;5021908;28;20552;-64
2021/12/24 05:56:58;;;;;;;16.50;12.25;;;;;;;;;;5019856;28;20023;-65
2021/12/24 05:59:23;;;;;;;12.63;10.57;;;;;;;;;;5040052;28;20021;-65
2021/12/24 06:01:48;;;;;;;10.23;8.70;;;;;;;;;;5037940;28;20036;-65
2021/12/24 06:04:13;;;;;;;11.23;8.10;;;;;;;;;;5037748;28;20305;-65
2021/12/24 06:06:39;;;;;;;12.32;9.60;;;;;;;;;;5037602;28;20057;-65
2021/12/24 06:09:04;;;;;;;14.38;11.13;;;;;;;;;;5028822;28;20021;-65
2021/12/24 06:11:29;;;;;;;11.63;9.40;;;;;;;;;;5035805;28;20067;-65
2021/12/24 06:13:56;;;;;;;10.95;8.77;;;;;;;;;;5030864;28;20024;-65
2021/12/24 06:16:21;;;;;;;11.85;10.07;;;;;;;;;;5021267;28;20390;-65
2021/12/24 06:18:46;;;;;;;16.30;12.38;;;;;;;;;;5033294;28;20025;-65
2021/12/24 06:21:12;;;;;;;14.85;11.73;;;;;;;;;;5037760;28;20083;-65
2021/12/24 06:23:38;;;;;;;14.77;10.85;;;;;;;;;;5037550;28;20037;-65
2021/12/24 06:26:04;;;;;;;11.38;10.15;;;;;;;;;;5037686;28;20037;-65
2021/12/24 06:28:29;;;;;;;12.68;10.30;;;;;;;;;;5014644;28;20120;-65
2021/12/24 06:30:55;;;;;;;12.60;10.30;;;;;;;;;;5038928;28;20113;-65
2021/12/24 06:33:20;;;;;;;11.65;9.13;;;;;;;;;;5037126;28;20056;-65
2021/12/24 06:35:46;;;;;;;9.20;6.90;;;;;;;;;;5038030;28;20038;-64
2021/12/24 06:38:11;;;;;;;12.57;10.40;;;;;;;;;;5034626;28;20032;-65
2021/12/24 06:40:37;;;;;;;9.20;7.45;;;;;;;;;;5032713;28;20077;-65
2021/12/24 06:43:02;;;;;;;12.48;9.82;;;;;;;;;;5036872;28;20041;-66
2021/12/24 06:45:30;;;;;;;9.80;8.13;;;;;;;;;;5038031;28;20042;-65
2021/12/24 06:47:57;;;;;;;13.00;11.02;;;;;;;;;;5034512;28;20488;-65
2021/12/24 06:50:22;;;;;;;12.65;10.25;;;;;;;;;;5036428;28;20029;-64
2021/12/24 06:52:48;;;;;;;11.85;9.88;;;;;;;;;;5048329;28;20036;-65
2021/12/24 06:55:13;;;;;;;12.18;9.63;;;;;;;;;;5042608;28;20017;-65
2021/12/24 06:57:40;;;;;;;14.77;10.65;;;;;;;;;;5036710;28;20056;-67
2021/12/24 07:00:07;;;;;;;13.77;10.65;;;;;;;;;;5035146;28;20116;-63
2021/12/24 07:02:32;;;;;;;10.23;8.00;;;;;;;;;;5036420;28;20070;-64
2021/12/24 07:04:57;;;;;;;10.52;8.50;;;;;;;;;;5036412;28;20059;-64
2021/12/24 07:07:22;;;;;;;12.00;9.45;;;;;;;;;;5033746;28;20026;-65
2021/12/24 07:09:48;;;;;;;14.00;9.38;;;;;;;;;;5010069;28;20117;-65
2021/12/24 07:12:14;;;;;;;13.35;9.85;;;;;;;;;;5043136;28;20018;-65
2021/12/24 07:14:39;;;;;;;15.73;11.00;;;;;;;;;;5033846;28;20017;-65
2021/12/24 07:17:04;;;;;;;12.90;9.75;;;;;;;;;;5034206;28;20079;-65
2021/12/24 07:19:30;;;;;;;13.32;10.68;;;;;;;;;;5031647;28;20324;-65
2021/12/24 07:21:55;;;;;;;13.45;10.68;;;;;;;;;;5026152;28;20492;-64
2021/12/24 07:24:20;;;;;;;12.40;10.10;;;;;;;;;;5033705;28;20508;-65
2021/12/24 07:26:46;;;;;;;13.73;10.70;;;;;;;;;;5015599;28;20035;-65
2021/12/24 07:29:11;;;;;;;14.63;10.75;;;;;;;;;;5035187;28;20036;-65
2021/12/24 07:31:36;;;;;;;10.35;9.10;;;;;;;;;;5014410;28;20035;-65
2021/12/24 07:34:02;;;;;;;12.57;9.48;;;;;;;;;;5019400;28;20467;-65
2021/12/24 07:36:27;;;;;;;10.35;7.93;;;;;;;;;;5024700;28;20386;-65
2021/12/24 07:38:52;;;;;;;11.13;8.85;;;;;;;;;;5028074;28;20032;-65
2021/12/24 07:41:18;;;;;;;12.68;8.95;;;;;;;;;;5032476;28;20047;-64
2021/12/24 07:43:44;;;;;;;10.13;8.38;;;;;;;;;;5032622;28;20017;-65
2021/12/24 07:46:09;;;;;;;11.35;8.20;;;;;;;;;;5011106;28;20552;-64
2021/12/24 07:48:43;;;;;;;9.35;8.13;;;;;;;;;;5033349;28;20021;-65
2021/12/24 07:53:34;;;;;;;8.68;7.05;;;;;;;;;;5032513;28;20124;-64
2021/12/24 07:55:59;;;;;;;9.93;7.85;;;;;;;;;;5032706;28;20461;-64
2021/12/24 07:58:24;;;;;;;8.73;7.28;;;;;;;;;;5028601;28;20163;-65
2021/12/24 08:00:51;;;;;;;6.25;5.07;;;;;;;;;;5032483;28;20025;-64
2021/12/24 08:03:16;;;;;;;7.53;5.55;;;;;;;;;;5038716;28;20024;-65
2021/12/24 08:05:41;;;;;;;8.55;6.70;;;;;;;;;;5033025;28;20021;-66
2021/12/24 08:08:07;;;;;;;7.88;6.28;;;;;;;;;;5029378;28;20026;-65
2021/12/24 08:10:34;;;;;;;7.90;6.15;;;;;;;;;;5027961;28;20025;-65
2021/12/24 08:12:59;;;;;;;7.20;5.88;;;;;;;;;;5031372;28;20048;-64
2021/12/24 08:15:25;;;;;;;9.25;6.25;;;;;;;;;;5033398;28;20423;-64
2021/12/24 08:17:50;;;;;;;8.15;6.38;;;;;;;;;;5036456;28;20033;-64
2021/12/24 08:20:15;;;;;;;5.82;5.18;;;;;;;;;;5032502;28;20052;-64
2021/12/24 08:22:40;;;;;;;7.22;5.30;;;;;;;;;;5031164;28;20125;-64
2021/12/24 08:25:07;;;;;;;6.28;4.80;;;;;;;;;;5005970;28;20041;-64
2021/12/24 08:27:34;;;;;;;5.93;5.00;;;;;;;;;;5039071;28;20029;-64
2021/12/24 08:29:59;;;;;;;5.25;4.47;;;;;;;;;;5014041;28;20428;-64
2021/12/24 08:32:24;;;;;;;8.68;5.53;;;;;;;;;;5013298;28;20063;-64
2021/12/24 08:34:52;;;;;;;5.13;4.53;;;;;;;;;;5032185;28;20017;-63
2021/12/24 08:37:17;;;;;;;5.80;5.13;;;;;;;;;;5031778;28;20033;-63
2021/12/24 08:39:42;;;;;;;6.55;4.75;;;;;;;;;;5030081;28;20053;-64
2021/12/24 08:42:07;;;;;;;5.60;4.68;;;;;;;;;;5030517;28;21495;-64
2021/12/24 08:44:33;;;;;;;5.13;4.15;;;;;;;;;;5037907;28;20025;-64
2021/12/24 08:47:01;;;;;;;7.03;4.78;;;;;;;;;;5031288;28;20462;-64
2021/12/24 08:49:26;;;;;;;4.80;4.20;;;;;;;;;;5032251;28;20025;-64
2021/12/24 08:51:51;;;;;;;4.85;4.35;;;;;;;;;;5031618;28;20017;-64
2021/12/24 08:54:17;;;;;;;5.80;4.40;;;;;;;;;;5031773;28;20085;-66
2021/12/24 08:56:43;;;;;;;6.22;4.45;;;;;;;;;;5031100;28;20033;-66
2021/12/24 08:59:08;;;;;;;5.15;4.32;;;;;;;;;;5010385;28;20014;-66
2021/12/24 09:01:34;;;;;;;5.18;4.68;;;;;;;;;;5026851;28;20320;-65
2021/12/24 09:03:59;;;;;;;4.95;4.07;;;;;;;;;;5029021;28;20032;-66
2021/12/24 09:06:24;;;;;;;5.00;4.28;;;;;;;;;;5029854;28;20891;-66
2021/12/24 09:08:49;;;;;;;5.13;3.92;;;;;;;;;;5019872;28;20448;-66
2021/12/24 09:11:15;;;;;;;4.50;3.90;;;;;;;;;;5032616;28;20013;-65
2021/12/24 09:13:40;;;;;;;5.00;3.70;;;;;;;;;;5030491;28;20049;-65
2021/12/24 09:16:05;;;;;;;4.75;3.92;;;;;;;;;;5014585;28;20034;-65
2021/12/24 09:18:30;;;;;;;3.42;2.85;;;;;;;;;;5041405;28;20091;-65
2021/12/24 09:21:00;;;;;;;4.55;3.40;;;;;;;;;;5018470;28;20044;-64
2021/12/24 09:23:25;;;;;;;4.43;3.10;;;;;;;;;;5031311;28;20026;-65
2021/12/24 09:25:50;;;;;;;2.72;2.42;;;;;;;;;;5033289;28;20029;-65
2021/12/24 09:28:16;;;;;;;2.97;2.60;;;;;;;;;;5031123;28;20497;-65
2021/12/24 09:30:41;;;;;;;4.65;3.08;;;;;;;;;;5031287;28;20022;-65
2021/12/24 09:33:06;;;;;;;3.75;2.67;;;;;;;;;;5031546;28;20034;-65
2021/12/24 09:35:32;;;;;;;3.67;2.65;;;;;;;;;;5036242;28;20459;-65
2021/12/24 09:37:58;;;;;;;3.35;2.90;;;;;;;;;;5031802;28;20025;-65
2021/12/24 09:40:24;;;;;;;2.60;2.40;;;;;;;;;;5026139;28;20048;-65
2021/12/24 09:42:49;;;;;;;3.22;2.90;;;;;;;;;;5036444;28;20068;-65
2021/12/24 09:45:15;;;;;;;3.00;2.67;;;;;;;;;;5029718;28;20056;-65
2021/12/24 09:47:41;;;;;;;3.17;2.03;;;;;;;;;;5030223;28;20025;-65
2021/12/24 09:50:07;;;;;;;2.72;2.53;;;;;;;;;;5031672;28;20030;-64
2021/12/24 09:52:33;;;;;;;3.13;2.70;;;;;;;;;;5030835;28;20053;-64
2021/12/24 09:55:06;;;;;;;5.03;2.42;;;;;;;;;;5030653;28;20029;-64
2021/12/24 09:57:31;;;;;;;2.50;2.30;;;;;;;;;;5030252;28;20398;-64
2021/12/24 09:59:57;;;;;;;2.83;2.53;;;;;;;;;;5031028;28;20198;-64
2021/12/24 10:02:28;;;;;;;2.35;1.80;;;;;;;;;;5031134;28;20052;-63
2021/12/24 10:04:53;;;;;;;2.40;2.20;;;;;;;;;;5030954;28;20032;-63
2021/12/24 10:07:24;;;;;;;2.30;2.10;;;;;;;;;;5029496;28;20037;-63
2021/12/24 10:09:49;;;;;;;3.30;2.20;;;;;;;;;;5009950;28;20024;-63
2021/12/24 10:12:21;;;;;;;1.60;1.48;;;;;;;;;;5030578;28;20452;-64
2021/12/24 10:14:49;;;;;;;2.35;2.15;;;;;;;;;;5030919;28;20049;-64
2021/12/24 10:17:16;;;;;;;2.38;1.90;;;;;;;;;;5030980;28;20029;-64
2021/12/24 10:19:44;;;;;;;1.50;1.35;;;;;;;;;;5029699;28;20065;-64
2021/12/24 10:22:10;;;;;;;2.70;2.00;;;;;;;;;;5024277;28;20030;-63
2021/12/24 10:24:35;;;;;;;2.10;1.90;;;;;;;;;;5039814;28;20561;-63
2021/12/24 10:27:00;;;;;;;1.52;1.30;;;;;;;;;;5030887;28;20029;-64
2021/12/24 10:29:33;;;;;;;2.55;1.60;;;;;;;;;;5030468;28;20017;-64
2021/12/24 10:32:12;;;;;;;2.45;1.60;;;;;;;;;;5041225;28;20500;-64
2021/12/24 10:34:38;;;;;;;1.35;1.25;;;;;;;;;;5039136;28;20029;-64
2021/12/24 10:37:05;;;;;;;1.58;1.08;;;;;;;;;;5030715;28;20022;-64
2021/12/24 10:39:35;;;;;;;1.55;1.40;;;;;;;;;;5030127;28;20132;-64
2021/12/24 10:42:02;;;;;;;1.55;1.20;;;;;;;;;;5032396;28;20025;-64
2021/12/24 10:44:30;;;;;;;1.63;1.05;;;;;;;;;;5034397;28;20390;-64
2021/12/24 10:47:04;;;;;;;2.45;1.35;;;;;;;;;;5029267;28;20076;-65
2021/12/24 10:54:59;;;;;;;1.73;1.30;;;;;;;;;;5028880;28;20558;-63
2021/12/24 10:57:44;;;;;;;1.85;0.90;;;;;;;;;;5029087;28;20021;-65
2021/12/24 11:00:15;;;;;;;1.40;0.98;;;;;;;;;;5026521;28;20129;-66
2021/12/24 11:02:42;;;;;;;2.78;1.10;;;;;;;;;;5033770;28;20068;-66
2021/12/24 11:05:22;;;;;;;1.27;1.17;;;;;;;;;;5031035;28;20155;-64
2021/12/24 11:07:48;;;;;;;1.00;0.60;;;;;;;;;;5033614;28;20029;-64
2021/12/24 11:10:19;;;;;;;2.05;1.25;;;;;;;;;;5025460;28;20028;-64
2021/12/24 11:13:09;;;;;;;1.27;0.93;;;;;;;;;;5030277;28;20025;-64
2021/12/24 11:15:45;;;;;;;2.22;1.10;;;;;;;;;;5027828;28;20022;-64
2021/12/24 11:18:18;;;;;;;1.30;1.02;;;;;;;;;;5026775;28;20022;-64
2021/12/24 11:20:43;;;;;;;1.48;0.93;;;;;;;;;;5034520;28;20381;-64
2021/12/24 11:23:10;;;;;;;1.77;0.98;;;;;;;;;;5031504;28;20033;-64
2021/12/24 11:25:37;;;;;;;2.08;1.30;;;;;;;;;;5032648;28;20116;-64
2021/12/24 11:28:03;;;;;;;1.63;1.30;;;;;;;;;;5032487;28;20565;-66
2021/12/24 11:30:29;;;;;;;2.75;1.33;;;;;;;;;;5032357;28;20065;-65
2021/12/24 11:32:55;;;;;;;1.55;0.93;;;;;;;;;;5032762;28;20068;-65
2021/12/24 11:35:20;;;;;;;1.80;1.50;;;;;;;;;;5032560;28;20423;-66
2021/12/24 11:37:47;;;;;;;1.67;1.30;;;;;;;;;;5033607;28;20117;-66
2021/12/24 11:40:14;;;;;;;2.05;1.35;;;;;;;;;;5027821;28;20057;-65
2021/12/24 11:42:41;;;;;;;2.63;1.17;;;;;;;;;;5032858;28;20394;-66
2021/12/24 11:45:06;;;;;;;2.47;1.38;;;;;;;;;;5031879;28;20026;-65
2021/12/24 11:47:32;;;;;;;1.77;1.10;;;;;;;;;;5006352;28;20083;-65
2021/12/24 11:49:57;;;;;;;2.88;1.30;;;;;;;;;;5023478;28;20098;-65
2021/12/24 11:52:22;;;;;;;1.55;1.20;;;;;;;;;;5023359;28;20025;-65
2021/12/24 11:54:47;;;;;;;1.05;0.98;;;;;;;;;;5032163;28;20369;-65
2021/12/24 11:57:17;;;;;;;2.92;1.77;;;;;;;;;;5027908;28;20022;-65
2021/12/24 11:59:42;;;;;;;2.25;1.40;;;;;;;;;;5030093;28;20057;-65
2021/12/24 12:02:07;;;;;;;2.05;1.40;;;;;;;;;;5023259;28;20073;-64
2021/12/24 12:04:33;;;;;;;2.78;1.50;;;;;;;;;;5020676;28;20040;-65
2021/12/24 12:07:16;;;;;;;1.65;1.55;;;;;;;;;;5030392;28;20033;-65
2021/12/24 12:09:43;;;;;;;1.27;1.17;;;;;;;;;;5017321;28;20021;-64
2021/12/24 12:12:10;;;;;;;2.20;1.63;;;;;;;;;;5019737;28;20037;-64
2021/12/24 12:14:37;;;;;;;2.10;1.55;;;;;;;;;;5023406;28;20090;-65
2021/12/24 12:17:06;;;;;;;2.45;1.50;;;;;;;;;;5024741;28;20025;-63
2021/12/24 12:19:57;;;;;;;2.03;1.40;;;;;;;;;;5024959;28;20120;-64
2021/12/24 12:27:18;;;;;;;2.40;1.80;;;;;;;;;;5026453;28;20076;-65
2021/12/24 12:29:44;;;;;;;1.52;1.35;;;;;;;;;;5008850;28;20045;-65
2021/12/24 12:32:12;;;;;;;3.00;1.40;;;;;;;;;;5028051;28;20030;-64
2021/12/24 12:34:43;;;;;;;3.28;1.60;;;;;;;;;;5001117;28;20383;-64
2021/12/24 12:37:11;;;;;;;2.90;1.67;;;;;;;;;;5024671;28;20021;-64
2021/12/24 12:39:37;;;;;;;3.15;2.25;;;;;;;;;;5019551;28;20069;-65
2021/12/24 12:42:03;;;;;;;3.45;2.10;;;;;;;;;;5023250;28;20485;-64
2021/12/24 12:44:28;;;;;;;2.38;1.90;;;;;;;;;;5027223;28;20565;-65
2021/12/24 12:47:07;;;;;;;1.92;1.30;;;;;;;;;;5028831;28;20104;-64
2021/12/24 12:49:34;;;;;;;2.50;1.30;;;;;;;;;;5029543;28;20021;-67
2021/12/24 12:52:01;;;;;;;2.00;1.80;;;;;;;;;;5014349;28;20040;-66
2021/12/24 12:54:43;;;;;;;3.58;1.67;;;;;;;;;;5028371;28;20474;-65
2021/12/24 12:57:10;;;;;;;2.70;1.92;;;;;;;;;;5030058;28;20033;-65
2021/12/24 12:59:35;;;;;;;3.80;2.15;;;;;;;;;;5012956;28;20095;-63
2021/12/24 13:02:01;;;;;;;4.07;2.03;;;;;;;;;;5012630;28;20441;-65
2021/12/24 13:04:26;;;;;;;2.38;1.67;;;;;;;;;;5024220;28;20087;-65
2021/12/24 13:06:53;;;;;;;2.17;1.63;;;;;;;;;;5031642;28;20018;-65
2021/12/24 13:09:21;;;;;;;2.38;1.80;;;;;;;;;;5023859;28;20026;-65
2021/12/24 13:11:51;;;;;;;1.88;1.75;;;;;;;;;;5034959;28;20014;-65
2021/12/24 13:14:17;;;;;;;2.83;2.15;;;;;;;;;;5030926;28;20018;-65
2021/12/24 13:16:52;;;;;;;2.67;1.98;;;;;;;;;;5029563;28;20029;-66
2021/12/24 13:24:47;;;;;;;2.42;1.83;;;;;;;;;;5020952;28;20035;-65
2021/12/24 13:27:12;;;;;;;3.90;2.42;;;;;;;;;;5031072;28;20029;-65
2021/12/24 13:29:37;;;;;;;3.58;2.97;;;;;;;;;;5029888;28;20013;-64
2021/12/24 13:32:04;;;;;;;5.05;2.60;;;;;;;;;;5029584;28;20049;-65
2021/12/24 13:34:29;;;;;;;3.17;2.63;;;;;;;;;;5022565;28;20084;-65
2021/12/24 13:36:58;;;;;;;3.35;3.00;;;;;;;;;;5025081;28;20409;-66
2021/12/24 13:39:24;;;;;;;3.92;2.92;;;;;;;;;;5021554;28;20045;-65
2021/12/24 13:41:59;;;;;;;4.85;2.70;;;;;;;;;;5020674;28;20390;-65
2021/12/24 13:44:24;;;;;;;;;;;;;;;;;;5031332;28;20022;-66
2021/12/24 13:47:05;;;;;;;4.78;3.30;;;;;;;;;;5025217;28;20374;-65
2021/12/24 13:49:43;;;;;;;6.30;3.15;;;;;;;;;;5031343;28;20385;-66
2021/12/24 13:54:52;;;;;;;4.07;3.47;;;;;;;;;;5028759;28;20032;-64
2021/12/24 13:57:17;;;;;;;4.47;3.28;;;;;;;;;;5038075;28;20029;-65
2021/12/24 13:59:43;;;;;;;4.95;3.13;;;;;;;;;;5031522;28;20013;-65
2021/12/24 14:02:09;;;;;;;5.63;3.67;;;;;;;;;;5023536;28;20021;-62
2021/12/24 14:04:34;;;;;;;4.15;3.17;;;;;;;;;;5016680;28;20022;-65
2021/12/24 14:06:59;;;;;;;4.65;3.55;;;;;;;;;;5016810;28;20033;-65
2021/12/24 14:09:29;;;;;;;4.40;3.45;;;;;;;;;;5007117;28;20441;-66
2021/12/24 14:11:55;;;;;;;6.28;3.63;;;;;;;;;;5023566;28;20155;-65
2021/12/24 14:14:27;;;;;;;6.20;3.78;;;;;;;;;;5028356;28;20040;-65
2021/12/24 14:17:21;;;;;;;6.80;3.50;;;;;;;;;;5018648;28;20436;-66
2021/12/24 14:20:24;;;;;;;8.02;5.10;;;;;;;;;;5028418;28;20030;-66
2021/12/24 14:22:35;;;;;;;5.28;3.72;;;;;;;;;;5028486;28;20042;-65
2021/12/24 14:25:04;;;;;;;5.95;3.35;;;;;;;;;;5032530;28;20025;-64
2021/12/24 14:27:30;;;;;;;5.55;3.78;;;;;;;;;;5042654;28;20027;-64
2021/12/24 14:29:57;;;;;;;6.63;3.95;;;;;;;;;;5032549;28;20040;-64
2021/12/24 14:32:36;;;;;;;6.03;3.58;;;;;;;;;;5032898;28;20036;-65
2021/12/24 14:35:15;;;;;;;8.23;3.97;;;;;;;;;;5033065;28;20146;-65
2021/12/24 14:37:41;;;;;;;7.78;3.92;;;;;;;;;;5031172;28;20122;-65
2021/12/24 14:40:06;;;;;;;5.38;3.40;;;;;;;;;;5016854;28;20447;-65
2021/12/24 14:42:38;;;;;;;5.04;4.12;;;;;;;;;;5020573;28;20036;-67
2021/12/24 14:45:15;;;;;;;7.05;3.47;;;;;;;;;;5022115;28;20025;-65
2021/12/24 14:47:41;;;;;;;4.38;3.92;;;;;;;;;;5025047;28;20041;-65
2021/12/24 14:50:08;;;;;;;7.03;3.70;;;;;;;;;;5025876;28;20029;-65
2021/12/24 14:52:33;;;;;;;5.28;4.07;;;;;;;;;;5024094;28;20021;-66
2021/12/24 14:55:18;;;;;;;5.38;3.60;;;;;;;;;;5023160;28;20040;-65
2021/12/24 14:57:44;;;;;;;7.88;3.90;;;;;;;;;;5022493;28;20121;-66
2021/12/24 15:00:10;;;;;;;5.85;3.47;;;;;;;;;;5026439;28;20108;-66
2021/12/24 15:02:42;;;;;;;4.70;3.22;;;;;;;;;;5025836;28;20021;-66
2021/12/24 15:05:08;;;;;;;5.93;4.00;;;;;;;;;;5024030;28;20025;-66
2021/12/24 15:07:34;;;;;;;5.95;3.55;;;;;;;;;;5005042;28;20032;-65
2021/12/24 15:10:13;;;;;;;5.30;3.70;;;;;;;;;;5017757;28;20018;-66
2021/12/24 15:12:43;;;;;;;4.93;3.30;;;;;;;;;;5026463;28;20028;-65
2021/12/24 15:15:09;;;;;;;3.42;2.65;;;;;;;;;;5013860;28;20109;-65
2021/12/24 15:17:38;;;;;;;4.93;2.40;;;;;;;;;;5031965;28;20421;-65
2021/12/24 15:20:04;;;;;;;5.75;2.80;;;;;;;;;;5032084;28;20056;-65
2021/12/24 15:22:29;;;;;;;4.13;2.53;;;;;;;;;;5030174;28;20053;-65
2021/12/24 15:24:54;;;;;;;3.78;2.40;;;;;;;;;;5013008;28;20037;-66
2021/12/24 15:27:19;;;;;;;5.20;2.63;;;;;;;;;;5023104;28;20117;-65
2021/12/24 15:29:45;;;;;;;4.13;2.10;;;;;;;;;;5025667;28;20025;-66
2021/12/24 15:32:10;;;;;;;3.97;1.95;;;;;;;;;;5031479;28;20029;-66
2021/12/24 15:34:35;;;;;;;3.78;1.65;;;;;;;;;;5030007;28;20037;-66
2021/12/24 15:37:00;;;;;;;3.13;1.98;;;;;;;;;;5033739;28;20029;-65
2021/12/24 15:39:25;;;;;;;3.92;2.10;;;;;;;;;;5006862;28;20045;-66
2021/12/24 15:41:51;;;;;;;3.17;2.15;;;;;;;;;;5029929;28;20052;-64
2021/12/24 15:44:16;;;;;;;5.43;2.67;;;;;;;;;;5021570;28;20156;-63
2021/12/24 15:46:42;;;;;;;4.07;2.53;;;;;;;;;;5022102;28;20068;-64
2021/12/24 15:49:07;;;;;;;3.42;1.98;;;;;;;;;;5023752;28;20018;-65
2021/12/24 15:51:35;;;;;;;2.53;1.83;;;;;;;;;;5021876;28;20135;-64
2021/12/24 15:54:00;;;;;;;3.67;1.73;;;;;;;;;;5023747;28;20025;-65
2021/12/24 15:56:25;;;;;;;3.47;1.60;;;;;;;;;;5024035;28;20478;-66
2021/12/24 15:58:50;;;;;;;3.47;1.90;;;;;;;;;;5024178;28;20033;-63
2021/12/24 16:01:17;;;;;;;4.80;2.47;;;;;;;;;;5022798;28;20032;-66
2021/12/24 16:03:42;;;;;;;5.05;1.50;;;;;;;;;;5025861;28;20037;-66
2021/12/24 16:06:07;;;;;;;3.78;1.77;;;;;;;;;;5023585;28;20052;-65
2021/12/24 16:08:33;;;;;;;4.55;1.67;;;;;;;;;;5003264;28;20596;-64
2021/12/24 16:10:58;;;;;;;2.92;1.55;;;;;;;;;;5002613;28;20105;-61
2021/12/24 16:13:23;;;;;;;4.05;1.73;;;;;;;;;;5029460;28;20017;-65
2021/12/24 16:15:51;;;;;;;2.08;1.40;;;;;;;;;;5029229;28;20017;-65
2021/12/24 16:18:16;;;;;;;5.32;1.65;;;;;;;;;;5030737;28;20033;-65
2021/12/24 16:20:42;;;;;;;3.78;1.90;;;;;;;;;;5026694;28;20509;-65
2021/12/24 16:23:07;;;;;;;4.50;1.42;;;;;;;;;;5029690;28;20378;-65